createdAt,value
2018-07-11T00:00:42.067Z,8.97
2018-07-11T00:04:50.920Z,8.17
2018-07-11T00:08:54.583Z,7.87
2018-07-11T00:12:58.153Z,7.50
2018-07-11T00:17:10.854Z,7.70
2018-07-11T00:21:14.511Z,8.63
2018-07-11T00:25:21.251Z,7.83
2018-07-11T00:29:34.796Z,7.73
2018-07-11T00:33:39.901Z,8.47
2018-07-11T00:37:43.450Z,8.17
2018-07-11T00:41:54.430Z,8.43
2018-07-11T00:45:58.993Z,7.97
2018-07-11T00:50:07.573Z,7.60
2018-07-11T00:54:11.495Z,7.27
2018-07-11T00:58:49.910Z,8.07
2018-07-11T01:02:53.562Z,8.40
2018-07-11T01:06:57.802Z,7.90
2018-07-11T01:11:04.825Z,7.87
2018-07-11T01:15:08.951Z,8.13
2018-07-11T01:19:12.594Z,7.80
2018-07-11T01:23:18.658Z,8.57
2018-07-11T01:27:22.389Z,8.47
2018-07-11T01:31:26.330Z,8.37
2018-07-11T01:35:30.151Z,9.00
2018-07-11T01:39:33.787Z,9.07
2018-07-11T01:43:37.310Z,9.00
2018-07-11T01:47:41.418Z,8.60
2018-07-11T01:51:56.455Z,8.37
2018-07-11T01:56:00.063Z,8.47
2018-07-11T02:00:03.658Z,8.73
2018-07-11T02:04:09.367Z,9.93
2018-07-11T02:08:12.990Z,9.20
2018-07-11T02:12:16.559Z,8.77
2018-07-11T02:16:20.202Z,9.50
2018-07-11T02:20:29.090Z,10.10
2018-07-11T02:24:32.730Z,10.63
2018-07-11T02:28:36.389Z,10.80
2018-07-11T02:32:40.018Z,9.97
2018-07-11T02:36:43.628Z,11.00
2018-07-11T02:40:47.270Z,10.83
2018-07-11T02:44:51.045Z,11.40
2018-07-11T02:48:54.856Z,10.73
2018-07-11T02:53:03.741Z,11.60
2018-07-11T02:57:07.355Z,11.77
2018-07-11T03:01:10.978Z,11.20
2018-07-11T03:05:14.612Z,12.53
2018-07-11T03:09:19.286Z,11.97
2018-07-11T03:13:22.808Z,12.60
2018-07-11T03:17:26.520Z,11.90
2018-07-11T03:21:33.541Z,11.70
2018-07-11T03:25:37.101Z,12.20
2018-07-11T03:29:40.373Z,11.90
2018-07-11T03:33:44.001Z,12.13
2018-07-11T03:37:47.752Z,12.10
2018-07-11T03:41:51.502Z,12.73
2018-07-11T03:45:55.071Z,12.07
2018-07-11T03:49:58.746Z,13.67
2018-07-11T03:54:03.418Z,11.97
2018-07-11T03:58:07.090Z,13.97
2018-07-11T04:02:10.611Z,13.67
2018-07-11T04:06:13.929Z,13.33
2018-07-11T04:10:17.451Z,13.27
2018-07-11T04:14:21.030Z,13.20
2018-07-11T04:18:27.694Z,14.43
2018-07-11T04:22:30.911Z,12.37
2018-07-11T04:26:34.130Z,13.53
2018-07-11T04:30:37.754Z,13.33
2018-07-11T04:34:41.466Z,12.20
2018-07-11T04:38:45.119Z,13.03
2018-07-11T04:42:48.771Z,12.90
2018-07-11T04:46:52.431Z,11.47
2018-07-11T04:50:56.116Z,12.17
2018-07-11T04:54:59.990Z,11.93
2018-07-11T04:59:03.538Z,13.10
2018-07-11T05:03:07.329Z,12.90
2018-07-11T05:07:10.901Z,10.93
2018-07-11T05:11:14.786Z,12.00
2018-07-11T05:15:18.666Z,12.40
2018-07-11T05:19:22.253Z,12.10
2018-07-11T05:23:25.494Z,11.30
2018-07-11T05:27:29.207Z,11.83
2018-07-11T05:31:42.320Z,12.40
2018-07-11T05:35:46.191Z,10.30
2018-07-11T05:39:49.771Z,12.67
2018-07-11T05:43:53.609Z,12.47
2018-07-11T05:47:57.234Z,12.93
2018-07-11T05:52:01.672Z,13.53
2018-07-11T05:56:07.074Z,13.80
2018-07-11T06:00:13.431Z,14.07
2018-07-11T06:04:16.950Z,12.70
2018-07-11T06:08:20.618Z,12.73
2018-07-11T06:12:27.886Z,11.73
2018-07-11T06:16:31.418Z,12.77
2018-07-11T06:20:34.991Z,13.63
2018-07-11T06:24:43.462Z,13.40
2018-07-11T06:28:47.070Z,13.50
2018-07-11T06:32:50.695Z,12.83
2018-07-11T06:36:55.440Z,12.93
2018-07-11T06:40:59.343Z,13.13
2018-07-11T06:45:02.834Z,14.10
2018-07-11T06:49:06.487Z,12.93
2018-07-11T06:53:13.054Z,12.90
2018-07-11T06:57:16.637Z,14.07
2018-07-11T07:01:20.159Z,13.13
2018-07-11T07:05:24.422Z,13.07
2018-07-11T07:09:30.410Z,14.33
2018-07-11T07:13:34.053Z,14.63
2018-07-11T07:17:37.326Z,14.17
2018-07-11T07:21:45.552Z,11.83
2018-07-11T07:25:49.174Z,9.73
2018-07-11T07:29:52.826Z,8.83
2018-07-11T07:33:56.369Z,9.07
2018-07-11T07:38:02.078Z,9.40
2018-07-11T07:42:06.040Z,9.40
2018-07-11T07:46:09.826Z,8.37
2018-07-11T07:50:17.719Z,8.53
2018-07-11T07:54:21.902Z,7.63
2018-07-11T07:58:30.713Z,8.60
2018-07-11T08:02:34.358Z,7.97
2018-07-11T08:06:38.937Z,8.70
2018-07-11T08:10:42.632Z,6.10
2018-07-11T08:14:46.369Z,6.77
2018-07-11T08:18:50.136Z,6.77
2018-07-11T08:23:14.966Z,5.93
2018-07-11T08:27:34.751Z,5.77
2018-07-11T08:31:49.932Z,5.67
2018-07-11T08:37:01.787Z,6.23
2018-07-11T08:42:18.438Z,5.67
2018-07-11T08:48:38.429Z,6.43
2018-07-11T08:55:02.191Z,6.57
2018-07-11T09:01:37.385Z,7.00
2018-07-11T09:05:55.918Z,8.27
2018-07-11T09:12:22.767Z,7.60
2018-07-11T09:17:39.667Z,8.10
2018-07-11T09:22:11.627Z,7.60
2018-07-11T09:26:16.418Z,7.33
2018-07-11T09:30:20.022Z,6.97
2018-07-11T09:34:23.682Z,7.30
2018-07-11T09:38:29.560Z,6.10
2018-07-11T09:42:33.211Z,5.23
2018-07-11T09:46:36.898Z,5.07
2018-07-11T09:50:40.527Z,5.63
2018-07-11T09:54:44.051Z,4.90
2018-07-11T09:58:48.279Z,4.93
2018-07-11T10:02:52.038Z,5.50
2018-07-11T10:06:56.143Z,5.10
2018-07-11T10:10:59.641Z,3.77
2018-07-11T10:15:03.404Z,4.40
2018-07-11T10:19:07.373Z,4.27
2018-07-11T10:23:10.999Z,3.77
2018-07-11T10:27:14.566Z,4.00
2018-07-11T10:31:18.778Z,3.47
2018-07-11T10:35:24.203Z,3.27
2018-07-11T10:39:27.810Z,3.27
2018-07-11T10:43:31.394Z,2.63
2018-07-11T10:47:38.459Z,3.80
2018-07-11T10:51:42.089Z,4.77
2018-07-11T10:55:45.843Z,4.33
2018-07-11T10:59:51.942Z,4.50
2018-07-11T11:03:57.787Z,4.30
2018-07-11T11:08:02.826Z,4.97
2018-07-11T11:12:06.469Z,4.27
2018-07-11T11:16:10.121Z,3.47
2018-07-11T11:20:15.869Z,3.40
2018-07-11T11:24:20.159Z,3.77
2018-07-11T11:28:27.394Z,4.03
2018-07-11T11:32:31.380Z,3.80
2018-07-11T11:36:35.185Z,3.93
2018-07-11T11:40:39.417Z,4.30
2018-07-11T11:44:45.803Z,3.33
2018-07-11T11:48:49.365Z,3.80
2018-07-11T11:52:53.103Z,3.90
2018-07-11T11:57:00.610Z,4.23
2018-07-11T12:01:04.274Z,4.47
2018-07-11T12:05:08.063Z,4.40
2018-07-11T12:09:16.740Z,4.93
2018-07-11T12:13:21.926Z,6.07
2018-07-11T12:17:25.538Z,5.70
2018-07-11T12:21:32.541Z,6.10
2018-07-11T12:25:36.258Z,6.20
2018-07-11T12:29:39.842Z,8.30
2018-07-11T12:33:46.155Z,8.43
2018-07-11T12:37:50.105Z,8.87
2018-07-11T12:41:54.534Z,9.20
2018-07-11T12:45:58.393Z,8.87
2018-07-11T12:50:02.128Z,9.63
2018-07-11T12:54:07.457Z,8.20
2018-07-11T12:58:11.315Z,9.60
2018-07-11T13:02:15.254Z,8.13
2018-07-11T13:06:26.553Z,10.13
2018-07-11T13:10:30.186Z,8.80
2018-07-11T13:14:37.038Z,7.40
2018-07-11T13:18:40.822Z,4.33
2018-07-11T13:22:44.668Z,3.60
2018-07-11T13:26:50.743Z,2.97
2018-07-11T13:30:56.518Z,3.27
2018-07-11T13:35:00.358Z,2.70
2018-07-11T13:39:04.879Z,2.97
2018-07-11T13:43:08.777Z,3.07
2018-07-11T13:47:19.448Z,2.70
2018-07-11T13:51:23.106Z,2.90
2018-07-11T13:55:26.854Z,2.70
2018-07-11T13:59:30.597Z,3.03
2018-07-11T14:03:34.173Z,2.93
2018-07-11T14:07:42.186Z,3.43
2018-07-11T14:11:46.209Z,3.33
2018-07-11T14:15:49.751Z,3.73
2018-07-11T14:19:53.341Z,3.97
2018-07-11T14:23:57.487Z,4.37
2018-07-11T14:28:01.175Z,4.40
2018-07-11T14:32:06.285Z,4.10
2018-07-11T14:36:12.015Z,4.87
2018-07-11T14:40:19.495Z,4.97
2018-07-11T14:44:25.392Z,4.97
2018-07-11T14:48:30.260Z,5.80
2018-07-11T14:52:33.974Z,5.70
2018-07-11T14:56:41.853Z,6.30
2018-07-11T15:00:47.755Z,6.30
2018-07-11T15:04:51.619Z,6.30
2018-07-11T15:08:59.562Z,6.70
2018-07-11T15:13:04.209Z,6.30
2018-07-11T15:17:08.063Z,6.63
2018-07-11T15:21:12.579Z,6.77
2018-07-11T15:25:16.847Z,5.90
2018-07-11T15:29:23.655Z,7.13
2018-07-11T15:33:30.134Z,6.53
2018-07-11T15:37:35.689Z,6.50
2018-07-11T15:41:41.469Z,7.40
2018-07-11T15:45:47.723Z,6.27
2018-07-11T15:49:54.548Z,7.00
2018-07-11T15:54:03.668Z,6.00
2018-07-11T15:58:09.440Z,7.23
2018-07-11T16:02:15.558Z,7.90
2018-07-11T16:06:19.522Z,7.40
2018-07-11T16:10:31.042Z,8.93
2018-07-11T16:14:35.161Z,8.73
2018-07-11T16:18:38.844Z,7.50
2018-07-11T16:22:42.522Z,8.60
2018-07-11T16:26:48.039Z,8.10
2018-07-11T16:30:53.696Z,8.20
2018-07-11T16:34:58.299Z,8.40
2018-07-11T16:39:04.742Z,7.23
2018-07-11T16:43:08.403Z,7.33
2018-07-11T16:47:18.018Z,7.47
2018-07-11T16:51:21.768Z,6.00
2018-07-11T16:55:26.366Z,7.40
2018-07-11T16:59:34.890Z,7.33
2018-07-11T17:03:48.354Z,6.47
2018-07-11T17:07:52.802Z,6.53
2018-07-11T17:11:56.550Z,5.93
2018-07-11T17:16:06.787Z,5.80
2018-07-11T17:20:11.724Z,5.83
2018-07-11T17:24:17.340Z,5.77
2018-07-11T17:28:29.111Z,6.50
2018-07-11T17:32:36.855Z,5.90
2018-07-11T17:36:41.943Z,5.33
2018-07-11T17:40:47.190Z,6.23
2018-07-11T17:45:10.484Z,5.70
2018-07-11T17:49:26.551Z,5.80
2018-07-11T17:53:40.382Z,6.80
2018-07-11T17:57:56.964Z,6.20
2018-07-11T18:02:05.492Z,6.40
2018-07-11T18:06:22.984Z,6.03
2018-07-11T18:10:36.870Z,6.27
2018-07-11T18:14:51.032Z,6.40
2018-07-11T18:19:38.086Z,6.57
2018-07-11T18:24:57.774Z,6.40
2018-07-11T18:29:21.901Z,6.83
2018-07-11T18:33:37.023Z,7.20
2018-07-11T18:37:58.876Z,7.33
2018-07-11T18:42:15.830Z,8.33
2018-07-11T18:46:30.538Z,8.17
2018-07-11T18:50:51.368Z,7.20
2018-07-11T18:56:06.415Z,8.80
2018-07-11T19:00:21.122Z,8.93
2018-07-11T19:04:41.014Z,8.30
2018-07-11T19:08:56.392Z,8.23
2018-07-11T19:13:00.412Z,8.63
2018-07-11T19:18:14.726Z,8.67
2018-07-11T19:22:26.546Z,8.40
2018-07-11T19:27:15.581Z,8.63
2018-07-11T19:32:05.724Z,9.13
2018-07-11T19:37:23.220Z,8.93
2018-07-11T19:41:40.676Z,10.13
2018-07-11T19:45:53.031Z,10.40
2018-07-11T19:50:05.735Z,10.23
2018-07-11T19:54:17.998Z,12.37
2018-07-11T19:58:23.814Z,12.53
2018-07-11T20:02:29.555Z,13.60
2018-07-11T20:06:33.413Z,11.83
2018-07-11T20:10:39.374Z,11.33
2018-07-11T20:14:43.026Z,11.27
2018-07-11T20:18:46.692Z,11.40
2018-07-11T20:22:54.265Z,11.70
2018-07-11T20:26:57.803Z,11.77
2018-07-11T20:31:01.487Z,11.97
2018-07-11T20:35:09.802Z,13.63
2018-07-11T20:39:13.416Z,12.57
2018-07-11T20:43:17.143Z,15.17
2018-07-11T20:47:23.463Z,15.47
2018-07-11T20:51:27.454Z,17.77
2018-07-11T20:55:31.030Z,17.60
2018-07-11T21:00:47.642Z,19.43
2018-07-11T21:08:20.706Z,19.27
2018-07-11T21:12:45.231Z,19.53
2018-07-11T21:19:10.230Z,20.80
2018-07-11T21:23:14.887Z,23.07
2018-07-11T21:27:23.650Z,24.43
2018-07-11T21:31:28.395Z,22.70
2018-07-11T21:35:32.094Z,23.80
2018-07-11T21:39:41.070Z,22.93
2018-07-11T21:43:51.508Z,24.00
2018-07-11T21:47:58.932Z,22.40
2018-07-11T21:52:04.827Z,25.27
2018-07-11T21:56:11.904Z,27.53
2018-07-11T22:00:31.147Z,27.03
2018-07-11T22:04:34.775Z,25.53
2018-07-11T22:08:44.981Z,27.23
2018-07-11T22:12:48.831Z,26.17
2018-07-11T22:16:56.694Z,27.73
2018-07-11T22:21:01.915Z,25.50
2018-07-11T22:25:04.716Z,26.57
2018-07-11T22:29:08.533Z,25.60
2018-07-11T22:33:12.101Z,26.70
2018-07-11T22:37:14.851Z,25.60
2018-07-11T22:41:17.230Z,25.10
2018-07-11T22:45:23.266Z,25.07
2018-07-11T22:49:26.864Z,24.10
2018-07-11T22:53:31.372Z,22.87
2018-07-11T22:57:34.910Z,23.03
2018-07-11T23:01:37.929Z,20.70
2018-07-11T23:05:41.596Z,25.33
2018-07-11T23:09:45.506Z,20.67
2018-07-11T23:13:49.567Z,22.17
2018-07-11T23:17:51.925Z,23.37
2018-07-11T23:21:55.219Z,24.67
2018-07-11T23:25:57.572Z,24.20
2018-07-11T23:30:00.333Z,24.40
2018-07-11T23:34:05.891Z,25.93
2018-07-11T23:38:08.303Z,25.73
2018-07-11T23:42:10.671Z,27.53
2018-07-11T23:46:13.063Z,27.30
2018-07-11T23:50:20.878Z,27.77
2018-07-11T23:54:23.363Z,27.50
2018-07-11T23:58:25.861Z,29.50
